Time;durP1;ratioP1;P1;durP2;ratioP2;P2;SDS_P1;SDS_P2;PMS_P1;PMS_P2;Temp;Humidity;BMP_temperature;BMP_pressure;BME280_temperature;BME280_humidity;BME280_pressure;Samples;Min_cycle;Max_cycle;Signal;HPM_P1;HPM_P2
2022/03/12 00:00:00;;;;;;;23.33;13.73;;;;;;;9.06;43.30;101234.19;5052397;28;20025;-76
2022/03/12 00:02:29;;;;;;;20.77;13.10;;;;;;;9.06;43.30;101238.53;5051819;28;20120;-76
2022/03/12 00:04:55;;;;;;;22.65;14.18;;;;;;;9.04;43.61;101238.53;5052119;28;20035;-76
2022/03/12 00:07:20;;;;;;;19.02;12.38;;;;;;;9.06;44.16;101236.78;5052119;28;20021;-75
2022/03/12 00:09:45;;;;;;;19.92;13.00;;;;;;;9.02;44.36;101232.47;5052534;28;20051;-76
2022/03/12 00:12:11;;;;;;;19.17;12.93;;;;;;;9.03;43.66;101235.97;5052218;28;20126;-76
2022/03/12 00:14:37;;;;;;;20.98;13.05;;;;;;;9.02;44.06;101229.88;5051769;28;20033;-76
2022/03/12 00:17:03;;;;;;;20.92;13.68;;;;;;;9.06;44.43;101238.53;5053210;28;20025;-76
2022/03/12 00:19:32;;;;;;;22.70;12.88;;;;;;;9.05;44.66;101242.84;5052688;28;20047;-75
2022/03/12 00:21:58;;;;;;;19.33;12.90;;;;;;;8.99;45.22;101240.34;5051389;28;20119;-75
2022/03/12 00:24:24;;;;;;;23.92;14.10;;;;;;;9.02;44.63;101242.03;5052233;28;20021;-76
2022/03/12 00:26:50;;;;;;;22.63;13.63;;;;;;;9.04;44.35;101248.94;5052158;28;20021;-75
2022/03/12 00:29:16;;;;;;;27.73;14.27;;;;;;;9.08;44.36;101254.97;5051507;28;20060;-76
2022/03/12 00:31:43;;;;;;;23.05;13.50;;;;;;;9.08;44.32;101248.00;5052326;28;20090;-76
2022/03/12 00:34:09;;;;;;;25.67;12.95;;;;;;;9.10;44.69;101261.03;5052555;28;20473;-76
2022/03/12 00:36:34;;;;;;;20.08;12.88;;;;;;;9.10;44.65;101258.41;5051442;28;20032;-76
2022/03/12 00:38:59;;;;;;;20.45;12.95;;;;;;;9.11;44.94;101260.13;5052189;28;20079;-76
2022/03/12 00:41:25;;;;;;;19.83;13.15;;;;;;;9.07;44.81;101254.09;5051509;28;20041;-76
2022/03/12 00:43:52;;;;;;;22.60;13.27;;;;;;;9.08;46.46;101265.38;5051117;28;20022;-75
2022/03/12 00:46:19;;;;;;;20.63;13.38;;;;;;;9.02;46.49;101262.81;5051711;28;20415;-76
2022/03/12 00:48:45;;;;;;;21.48;13.70;;;;;;;9.00;47.80;101270.66;5051416;28;20029;-76
2022/03/12 00:51:10;;;;;;;20.70;13.30;;;;;;;8.97;48.03;101264.63;5051505;28;20078;-76
2022/03/12 00:53:37;;;;;;;24.25;13.98;;;;;;;8.95;48.93;101272.44;5051902;28;20024;-76
2022/03/12 00:56:05;;;;;;;23.20;13.27;;;;;;;8.89;49.68;101262.97;5051332;28;20487;-75
2022/03/12 00:58:30;;;;;;;20.75;13.50;;;;;;;8.83;49.39;101268.22;5051696;28;20033;-75
2022/03/12 01:00:56;;;;;;;20.75;12.48;;;;;;;8.89;48.45;101264.69;5051966;28;20198;-75
2022/03/12 01:03:21;;;;;;;20.85;12.77;;;;;;;8.87;48.92;101264.72;5050956;28;20048;-76
2022/03/12 01:05:49;;;;;;;21.77;13.55;;;;;;;8.88;49.25;101260.38;5051384;28;20028;-75
2022/03/12 01:08:15;;;;;;;23.00;13.00;;;;;;;8.88;49.01;101258.63;5051484;28;20392;-75
2022/03/12 01:10:41;;;;;;;21.50;13.27;;;;;;;8.94;48.95;101269.84;5034391;28;20494;-76
2022/03/12 01:13:08;;;;;;;23.02;13.68;;;;;;;8.94;49.23;101273.31;5059264;28;20101;-76
2022/03/12 01:15:34;;;;;;;25.38;13.45;;;;;;;8.91;49.92;101271.59;5060430;28;20029;-76
2022/03/12 01:18:00;;;;;;;22.33;13.52;;;;;;;8.94;50.08;101268.13;5050738;28;20040;-76
2022/03/12 01:20:26;;;;;;;21.80;12.98;;;;;;;8.90;50.70;101269.88;5051441;28;20040;-76
2022/03/12 01:22:51;;;;;;;22.08;13.40;;;;;;;8.87;51.32;101279.47;5050856;28;20029;-76
2022/03/12 01:25:17;;;;;;;20.83;13.20;;;;;;;8.83;51.39;101280.38;5050362;28;20111;-76
2022/03/12 01:27:42;;;;;;;24.50;13.65;;;;;;;8.74;53.07;101273.50;5051478;28;20071;-76
2022/03/12 01:30:08;;;;;;;19.35;12.98;;;;;;;8.67;54.77;101279.63;5051893;28;20021;-75
2022/03/12 01:32:34;;;;;;;22.85;13.90;;;;;;;8.50;56.90;101286.69;5050356;28;20032;-76
2022/03/12 01:35:00;;;;;;;24.83;13.93;;;;;;;8.35;57.98;101283.31;5051368;28;20127;-76
2022/03/12 01:37:25;;;;;;;22.98;14.82;;;;;;;8.34;57.76;101304.97;5050708;28;20112;-76
2022/03/12 01:39:51;;;;;;;23.10;15.18;;;;;;;8.21;59.63;101299.00;5050724;28;20021;-76
2022/03/12 01:42:19;;;;;;;24.92;14.63;;;;;;;8.07;59.27;101302.53;5050877;28;20040;-76
2022/03/12 01:44:45;;;;;;;24.38;15.18;;;;;;;7.93;62.17;101300.03;5050980;28;20052;-76
2022/03/12 01:47:11;;;;;;;25.08;14.88;;;;;;;7.86;62.71;101300.94;5050631;28;20052;-76
2022/03/12 01:49:37;;;;;;;23.23;15.13;;;;;;;7.79;63.18;101301.84;5051031;28;20037;-76
2022/03/12 01:52:03;;;;;;;24.17;15.82;;;;;;;7.69;64.48;101308.81;5050547;28;20035;-76
2022/03/12 01:54:29;;;;;;;28.80;16.00;;;;;;;7.58;66.50;101293.25;5050556;28;20029;-76
2022/03/12 01:56:58;;;;;;;25.48;15.45;;;;;;;7.48;66.29;101295.00;5051119;28;20036;-76
2022/03/12 01:59:24;;;;;;;25.83;15.23;;;;;;;7.47;67.82;101303.69;5049846;28;20094;-75
2022/03/12 02:01:53;;;;;;;24.88;15.07;;;;;;;7.48;66.19;101297.59;5051108;28;20032;-76
2022/03/12 02:04:20;;;;;;;25.00;14.57;;;;;;;7.50;65.96;101289.84;5051025;28;20052;-76
2022/03/12 02:06:46;;;;;;;25.00;14.73;;;;;;;7.61;64.73;101287.19;5049876;28;20116;-76
2022/03/12 02:09:15;;;;;;;29.60;14.85;;;;;;;7.65;64.16;101286.31;5049613;28;20056;-75
2022/03/12 02:11:42;;;;;;;22.00;14.02;;;;;;;7.76;64.03;101294.06;5049604;28;20029;-76
2022/03/12 02:14:16;;;;;;;23.70;14.82;;;;;;;7.82;62.65;101287.09;5050462;28;20527;-76
2022/03/12 02:16:45;;;;;;;;;;;;;;;7.86;61.46;101290.56;5050963;28;20071;-76
2022/03/12 02:19:11;;;;;;;26.27;13.90;;;;;;;7.91;62.23;101297.44;5050606;28;20015;-76
2022/03/12 02:21:43;;;;;;;24.90;14.75;;;;;;;7.99;62.68;101292.22;5050222;28;20499;-76
2022/03/12 02:24:11;;;;;;;24.52;13.77;;;;;;;8.09;62.01;101296.47;5050589;28;20033;-76
2022/03/12 02:26:38;;;;;;;23.13;13.90;;;;;;;8.12;61.56;101299.06;5052063;28;20033;-76
2022/03/12 02:29:06;;;;;;;22.38;12.55;;;;;;;8.15;60.68;101283.44;5054191;28;20021;-76
2022/03/12 02:31:31;;;;;;;26.33;13.98;;;;;;;8.21;61.08;101282.56;5066438;28;20060;-76
2022/03/12 02:34:01;;;;;;;20.33;13.40;;;;;;;8.27;60.61;101292.03;5061216;28;20075;-76
2022/03/12 02:36:27;;;;;;;22.13;14.07;;;;;;;8.31;60.43;101301.53;5053226;28;20397;-76
2022/03/12 02:38:54;;;;;;;23.50;13.52;;;;;;;8.32;61.62;101303.25;5054892;28;20021;-76
2022/03/12 02:41:22;;;;;;;21.65;13.40;;;;;;;8.34;61.09;101310.19;5053614;28;20115;-76
2022/03/12 02:43:47;;;;;;;22.35;14.00;;;;;;;8.32;60.73;101296.31;5053837;28;20119;-76
2022/03/12 02:46:14;;;;;;;20.58;13.50;;;;;;;8.33;61.68;101313.63;5054281;28;20065;-76
2022/03/12 02:48:40;;;;;;;21.52;13.65;;;;;;;8.35;60.53;101313.63;5053569;28;20040;-76
2022/03/12 02:51:06;;;;;;;23.33;13.90;;;;;;;8.31;60.88;101311.94;5054070;28;20040;-76
2022/03/12 02:53:32;;;;;;;25.40;13.13;;;;;;;8.31;60.29;101317.13;5054080;28;20036;-76
2022/03/12 02:55:58;;;;;;;21.98;13.95;;;;;;;8.29;61.39;101330.09;5053286;28;20041;-76
2022/03/12 02:58:23;;;;;;;20.50;13.75;;;;;;;8.26;61.03;101319.75;5053995;28;20020;-75
2022/03/12 03:00:49;;;;;;;23.15;14.00;;;;;;;8.23;60.65;101324.09;5054002;28;20029;-76
2022/03/12 03:03:14;;;;;;;22.90;14.88;;;;;;;8.17;61.61;101336.25;5052980;28;20365;-76
2022/03/12 03:05:48;;;;;;;22.88;14.40;;;;;;;8.10;61.54;101320.69;5054371;28;20400;-76
2022/03/12 03:08:21;;;;;;;22.90;14.18;;;;;;;8.00;60.99;101327.69;5053822;28;20033;-76
2022/03/12 03:10:52;;;;;;;24.48;15.00;;;;;;;7.86;61.24;101327.75;5052868;28;20108;-76
2022/03/12 03:13:17;;;;;;;23.73;14.98;;;;;;;7.70;62.48;101328.69;5053643;28;20032;-76
2022/03/12 03:15:46;;;;;;;22.55;14.07;;;;;;;7.55;63.15;101337.38;5053795;28;20082;-75
2022/03/12 03:18:12;;;;;;;24.95;14.93;;;;;;;7.46;63.36;101334.81;5052959;28;20477;-76
2022/03/12 03:20:37;;;;;;;22.52;14.43;;;;;;;7.35;64.35;101333.97;5053508;28;20017;-75
2022/03/12 03:23:06;;;;;;;21.77;14.35;;;;;;;7.28;65.05;101346.09;5053232;28;20037;-75
2022/03/12 03:25:31;;;;;;;21.70;13.27;;;;;;;7.20;65.56;101335.75;5052357;28;20033;-75
2022/03/12 03:27:56;;;;;;;21.70;12.82;;;;;;;7.14;66.25;101332.28;5053232;28;20036;-75
2022/03/12 03:30:22;;;;;;;23.13;13.48;;;;;;;7.05;67.45;101335.75;5053118;28;20119;-75
2022/03/12 03:32:47;;;;;;;20.25;12.32;;;;;;;7.00;68.56;101345.28;5052898;28;20465;-75
2022/03/12 03:35:12;;;;;;;20.58;12.38;;;;;;;6.95;69.58;101337.50;5053396;28;20086;-75
2022/03/12 03:37:38;;;;;;;19.67;12.70;;;;;;;6.92;69.98;101352.19;5052247;28;20065;-75
2022/03/12 03:40:04;;;;;;;20.50;13.10;;;;;;;6.93;69.72;101348.72;5053430;28;20033;-75
2022/03/12 03:42:29;;;;;;;22.98;12.23;;;;;;;6.89;70.73;101347.84;5053181;28;20414;-76
2022/03/12 03:44:59;;;;;;;18.88;12.60;;;;;;;6.86;70.89;101357.38;5052368;28;20424;-75
2022/03/12 03:47:25;;;;;;;21.48;13.05;;;;;;;6.78;71.48;101347.88;5057393;28;20028;-76
2022/03/12 03:49:50;;;;;;;19.85;12.98;;;;;;;6.70;71.05;101349.59;5064526;28;20056;-75
2022/03/12 03:52:15;;;;;;;21.45;13.63;;;;;;;6.72;71.81;101358.22;5052108;28;20037;-76
2022/03/12 03:54:42;;;;;;;20.83;13.13;;;;;;;6.69;72.26;101357.34;5053134;28;20384;-75
2022/03/12 03:57:10;;;;;;;18.73;12.40;;;;;;;6.64;72.02;101361.66;5053042;28;20112;-75
2022/03/12 03:59:35;;;;;;;20.20;12.95;;;;;;;6.60;72.60;101353.03;5052434;28;20025;-75
2022/03/12 04:02:00;;;;;;;18.77;11.90;;;;;;;6.55;73.37;101362.53;5053150;28;20376;-75
2022/03/12 04:04:28;;;;;;;21.05;11.88;;;;;;;6.51;73.51;101366.00;5052583;28;20441;-75
2022/03/12 04:06:54;;;;;;;21.05;13.07;;;;;;;6.48;74.14;101368.56;5051694;28;20051;-75
2022/03/12 04:09:19;;;;;;;18.88;11.27;;;;;;;6.40;74.51;101363.34;5053136;28;20481;-75
2022/03/12 04:11:44;;;;;;;19.45;11.85;;;;;;;6.39;74.53;101373.72;5052499;28;20373;-75
2022/03/12 04:14:10;;;;;;;17.73;11.85;;;;;;;6.35;75.32;101374.59;5052231;28;20052;-75
2022/03/12 04:16:36;;;;;;;16.65;10.73;;;;;;;6.33;76.67;101378.00;5053123;28;20048;-75
2022/03/12 04:19:05;;;;;;;14.93;9.73;;;;;;;6.30;77.40;101379.75;5052850;28;20024;-76
2022/03/12 04:21:31;;;;;;;15.38;9.73;;;;;;;6.26;77.60;101380.59;5051567;28;20087;-76
2022/03/12 04:23:56;;;;;;;18.33;10.80;;;;;;;6.22;77.25;101376.28;5051908;28;20025;-76
2022/03/12 04:26:21;;;;;;;17.67;10.23;;;;;;;6.20;78.93;101381.44;5052396;28;20099;-76
2022/03/12 04:28:47;;;;;;;15.98;9.25;;;;;;;6.18;80.09;101380.59;5051537;28;20064;-76
2022/03/12 04:31:13;;;;;;;13.85;8.90;;;;;;;6.12;80.36;101377.97;5052641;28;20464;-76
2022/03/12 04:33:39;;;;;;;14.23;9.05;;;;;;;6.10;80.67;101382.25;5052203;28;20381;-75
2022/03/12 04:36:05;;;;;;;15.48;9.38;;;;;;;6.06;81.55;101386.56;5051863;28;20025;-76
2022/03/12 04:38:31;;;;;;;14.25;9.10;;;;;;;6.03;81.67;101385.69;5051928;28;20040;-75
2022/03/12 04:40:56;;;;;;;13.35;9.02;;;;;;;5.98;82.34;101383.06;5050579;28;20099;-75
2022/03/12 04:43:28;;;;;;;12.27;8.23;;;;;;;5.98;83.04;101390.84;5051697;28;20025;-75
2022/03/12 04:45:54;;;;;;;11.52;8.27;;;;;;;5.97;82.84;101385.66;5052050;28;20480;-76
2022/03/12 04:48:21;;;;;;;13.85;8.88;;;;;;;5.93;83.46;101382.22;5051509;28;20028;-76
2022/03/12 04:50:48;;;;;;;12.18;8.63;;;;;;;5.90;83.22;101379.56;5051085;28;20611;-76
2022/03/12 04:53:13;;;;;;;14.45;9.20;;;;;;;5.90;83.61;101384.75;5051476;28;20036;-75
2022/03/12 04:55:39;;;;;;;11.93;7.97;;;;;;;5.86;82.92;101394.22;5051439;28;20469;-76
2022/03/12 04:58:07;;;;;;;11.90;8.00;;;;;;;5.86;84.22;101393.34;5052116;28;20103;-76
2022/03/12 05:00:38;;;;;;;14.68;9.10;;;;;;;5.85;85.40;101397.69;5051648;28;20025;-76
2022/03/12 05:03:19;;;;;;;13.93;8.88;;;;;;;5.83;84.30;101398.53;5045500;28;20078;-76
2022/03/12 05:05:48;;;;;;;11.43;7.65;;;;;;;5.81;86.45;101398.50;5051614;28;20033;-75
2022/03/12 05:08:25;;;;;;;10.73;7.55;;;;;;;5.82;87.02;101389.91;5051378;28;20041;-75
2022/03/12 05:10:55;;;;;;;12.60;7.57;;;;;;;5.81;86.86;101393.31;5050779;28;20021;-76
2022/03/12 05:13:27;;;;;;;11.77;7.70;;;;;;;5.82;87.64;101395.06;5051907;28;20044;-76
2022/03/12 05:15:55;;;;;;;10.40;7.35;;;;;;;5.84;88.56;101398.50;5050991;28;20025;-76
2022/03/12 05:18:23;;;;;;;9.73;6.88;;;;;;;5.83;88.00;101404.56;5049651;28;20124;-75
2022/03/12 05:20:48;;;;;;;10.30;6.80;;;;;;;5.83;88.04;101407.16;5051267;28;20036;-75
2022/03/12 05:23:15;;;;;;;9.23;6.53;;;;;;;5.85;89.27;101413.19;5050328;28;20388;-75
2022/03/12 05:25:42;;;;;;;9.25;6.38;;;;;;;5.88;90.09;101417.50;5051348;28;20492;-76
2022/03/12 05:28:15;;;;;;;11.00;7.43;;;;;;;5.86;90.38;101414.91;5051490;28;20055;-76
2022/03/12 05:30:41;;;;;;;12.32;7.03;;;;;;;5.83;89.47;101414.91;5050327;28;20048;-76
2022/03/12 05:33:06;;;;;;;10.23;6.95;;;;;;;5.79;89.20;101428.69;5051285;28;20032;-75
2022/03/12 05:35:32;;;;;;;12.43;6.78;;;;;;;5.66;89.49;101416.53;5051536;28;20032;-76
2022/03/12 05:37:58;;;;;;;10.30;7.25;;;;;;;5.65;89.63;101435.47;5050329;28;20082;-75
2022/03/12 05:40:26;;;;;;;10.60;7.07;;;;;;;5.60;89.82;101437.19;5051266;28;20037;-76
2022/03/12 05:42:55;;;;;;;12.63;7.57;;;;;;;5.55;90.21;101439.72;5051086;28;20033;-75
2022/03/12 05:45:23;;;;;;;11.77;8.10;;;;;;;5.51;90.61;101443.16;5050217;28;20025;-76
2022/03/12 05:47:50;;;;;;;10.30;7.55;;;;;;;5.47;90.63;101437.97;5051220;28;20029;-76
2022/03/12 05:50:17;;;;;;;12.15;8.25;;;;;;;5.46;90.84;101450.03;5051029;28;20404;-75
2022/03/12 05:52:48;;;;;;;14.80;8.48;;;;;;;5.39;90.98;101441.38;5049993;28;20036;-76
2022/03/12 05:55:15;;;;;;;13.20;8.88;;;;;;;5.39;91.15;101451.72;5051042;28;20384;-75
2022/03/12 05:57:42;;;;;;;13.68;8.23;;;;;;;5.36;91.16;101454.28;5051018;28;20029;-75
2022/03/12 06:00:11;;;;;;;13.80;8.48;;;;;;;5.34;91.13;101450.81;5050816;28;20033;-75
2022/03/12 06:02:40;;;;;;;15.90;9.68;;;;;;;5.35;92.05;101449.94;5055421;28;20443;-75
2022/03/12 06:05:14;;;;;;;14.18;8.65;;;;;;;5.33;92.14;101449.09;5055514;28;20039;-75
2022/03/12 06:07:44;;;;;;;14.88;9.13;;;;;;;5.34;91.80;101445.63;5054553;28;20025;-75
2022/03/12 06:10:09;;;;;;;16.90;9.63;;;;;;;5.30;92.22;101443.88;5074111;28;20039;-76
2022/03/12 06:12:35;;;;;;;15.40;10.00;;;;;;;5.39;93.15;101456.88;5069414;28;20757;-75
2022/03/12 06:15:00;;;;;;;16.88;9.95;;;;;;;5.41;92.83;101456.88;5055412;28;20029;-76
2022/03/12 06:17:26;;;;;;;14.43;9.18;;;;;;;5.46;93.05;101454.31;5055378;28;20053;-76
2022/03/12 06:19:52;;;;;;;14.68;9.25;;;;;;;5.46;92.98;101465.56;5054536;28;20019;-75
2022/03/12 06:22:17;;;;;;;15.00;9.70;;;;;;;5.50;93.02;101463.84;5055115;28;20435;-75
2022/03/12 06:24:42;;;;;;;15.35;9.93;;;;;;;5.55;93.57;101473.34;5054475;28;20102;-75
2022/03/12 06:27:08;;;;;;;14.07;9.50;;;;;;;5.61;93.62;101462.19;5054398;28;20112;-75
2022/03/12 06:29:34;;;;;;;14.68;8.45;;;;;;;5.67;93.44;101470.00;5055230;28;20427;-75
2022/03/12 06:32:00;;;;;;;15.23;9.00;;;;;;;5.72;93.55;101467.44;5054390;28;20078;-76
2022/03/12 06:34:26;;;;;;;17.33;10.18;;;;;;;5.76;93.93;101464.91;5053510;28;20028;-75
2022/03/12 06:36:51;;;;;;;14.70;9.50;;;;;;;5.86;94.42;101461.50;5054363;28;20388;-76
2022/03/12 06:39:16;;;;;;;14.73;9.23;;;;;;;5.92;94.04;101467.56;5054884;28;20033;-76
2022/03/12 06:41:44;;;;;;;12.80;8.93;;;;;;;5.98;93.49;101472.78;5053118;28;20039;-75
2022/03/12 06:44:11;;;;;;;14.07;9.48;;;;;;;6.06;94.31;101476.31;5054720;28;20021;-75
2022/03/12 06:46:37;;;;;;;16.23;10.05;;;;;;;6.13;93.74;101479.78;5054659;28;20475;-75
2022/03/12 06:49:05;;;;;;;14.25;8.82;;;;;;;6.17;93.94;101487.56;5053762;28;20057;-76
2022/03/12 06:51:32;;;;;;;14.23;9.55;;;;;;;6.23;94.21;101477.25;5054052;28;20116;-76
2022/03/12 06:53:57;;;;;;;14.93;8.95;;;;;;;6.27;93.89;101484.16;5054455;28;20033;-76
2022/03/12 06:56:22;;;;;;;15.57;9.43;;;;;;;6.33;93.55;101480.75;5053299;28;20055;-75
2022/03/12 06:58:48;;;;;;;13.90;8.57;;;;;;;6.42;93.74;101482.53;5054503;28;20032;-75
2022/03/12 07:01:13;;;;;;;15.07;9.40;;;;;;;6.50;93.56;101481.66;5054180;28;20043;-75
2022/03/12 07:03:39;;;;;;;13.43;8.57;;;;;;;6.54;93.37;101488.59;5052918;28;20119;-75
2022/03/12 07:06:04;;;;;;;12.52;8.57;;;;;;;6.62;92.78;101483.44;5054436;28;20385;-76
2022/03/12 07:08:30;;;;;;;14.13;8.93;;;;;;;6.69;93.17;101492.97;5053627;28;20029;-75
2022/03/12 07:10:56;;;;;;;14.55;9.05;;;;;;;6.79;93.13;101493.84;5052695;28;20021;-76
2022/03/12 07:13:28;;;;;;;12.60;8.77;;;;;;;6.87;93.17;101496.47;5053037;28;20460;-76
2022/03/12 07:15:54;;;;;;;13.02;9.15;;;;;;;6.92;92.54;101492.16;5052885;28;20543;-76
2022/03/12 07:18:20;;;;;;;12.85;8.57;;;;;;;6.98;91.99;101497.34;5053714;28;20035;-76
2022/03/12 07:20:45;;;;;;;12.95;8.88;;;;;;;7.00;92.23;101496.50;5053497;28;20039;-76
2022/03/12 07:23:10;;;;;;;13.00;8.75;;;;;;;7.05;91.67;101499.09;5052724;28;20385;-75
2022/03/12 07:25:36;;;;;;;14.20;8.98;;;;;;;7.06;91.79;101498.22;5053734;28;20040;-76
2022/03/12 07:28:01;;;;;;;14.82;8.85;;;;;;;7.13;91.48;101505.16;5057043;28;20025;-76
2022/03/12 07:30:27;;;;;;;13.98;8.85;;;;;;;7.21;90.78;101523.31;5064315;28;20432;-75
2022/03/12 07:32:52;;;;;;;13.25;9.07;;;;;;;7.25;91.30;101514.66;5053466;28;20047;-76
2022/03/12 07:35:18;;;;;;;13.20;9.10;;;;;;;7.33;90.93;101517.28;5053521;28;20028;-76
2022/03/12 07:37:46;;;;;;;15.20;9.30;;;;;;;7.40;90.69;101525.06;5052227;28;20361;-76
2022/03/12 07:40:13;;;;;;;13.80;9.18;;;;;;;7.49;90.81;101530.25;5052813;28;20025;-76
2022/03/12 07:42:39;;;;;;;13.20;9.25;;;;;;;7.55;90.48;101537.16;5053309;28;20040;-76
2022/03/12 07:45:06;;;;;;;13.00;8.35;;;;;;;7.62;89.89;101536.31;5052786;28;20131;-76
2022/03/12 07:47:33;;;;;;;14.00;8.30;;;;;;;7.72;88.75;101543.22;5060844;28;20029;-76
2022/03/12 07:49:58;;;;;;;13.43;9.07;;;;;;;7.81;88.77;101541.47;5053398;28;20468;-76
2022/03/12 07:52:23;;;;;;;17.23;9.43;;;;;;;7.88;88.64;101535.41;5052045;28;20096;-76
2022/03/12 07:54:49;;;;;;;12.45;8.98;;;;;;;7.98;88.37;101544.94;5053001;28;20384;-76
2022/03/12 07:57:14;;;;;;;13.82;9.55;;;;;;;8.06;88.16;101531.94;5052797;28;20020;-76
2022/03/12 07:59:39;;;;;;;13.77;8.68;;;;;;;8.10;87.90;101546.63;5052187;28;20118;-76
2022/03/12 08:02:06;;;;;;;15.52;8.55;;;;;;;8.17;87.40;101549.25;5053220;28;20507;-76
2022/03/12 08:04:33;;;;;;;13.57;8.68;;;;;;;8.21;86.93;101555.28;5052707;28;20082;-76
2022/03/12 08:07:02;;;;;;;16.67;9.35;;;;;;;8.26;87.41;101557.88;5051737;28;20131;-76
2022/03/12 08:09:28;;;;;;;12.32;8.82;;;;;;;8.28;87.19;101558.72;5052723;28;20025;-76
2022/03/12 08:11:53;;;;;;;13.90;9.00;;;;;;;8.30;86.66;101562.16;5051947;28;20131;-75
2022/03/12 08:14:20;;;;;;;11.60;8.43;;;;;;;8.31;87.14;101564.78;5052963;28;20033;-76
2022/03/12 08:16:47;;;;;;;12.45;8.65;;;;;;;8.35;86.65;101570.84;5053123;28;20115;-75
2022/03/12 08:19:12;;;;;;;11.52;8.55;;;;;;;8.42;86.33;101567.38;5051485;28;20040;-75
2022/03/12 08:21:39;;;;;;;13.00;8.35;;;;;;;8.53;85.76;101569.94;5051454;28;20025;-76
2022/03/12 08:24:05;;;;;;;11.90;8.82;;;;;;;8.62;85.70;101570.75;5051852;28;20051;-75
2022/03/12 08:26:31;;;;;;;14.52;8.60;;;;;;;8.73;85.57;101581.16;5051738;28;20131;-76
2022/03/12 08:28:56;;;;;;;10.90;7.88;;;;;;;8.83;84.87;101584.56;5052356;28;20496;-76
2022/03/12 08:31:22;;;;;;;12.18;8.05;;;;;;;8.91;85.02;101582.78;5052693;28;20028;-76
2022/03/12 08:33:47;;;;;;;14.10;9.10;;;;;;;8.95;84.71;101581.88;5051500;28;20039;-76
2022/03/12 08:36:14;;;;;;;12.90;9.00;;;;;;;9.08;83.76;101590.50;5052020;28;20083;-76
2022/03/12 08:38:40;;;;;;;13.30;8.88;;;;;;;9.17;83.35;101587.84;5052616;28;20017;-75
2022/03/12 08:41:06;;;;;;;13.95;8.63;;;;;;;9.28;83.27;101592.97;5051956;28;20488;-75
2022/03/12 08:43:33;;;;;;;14.45;8.38;;;;;;;9.35;83.15;101594.66;5052516;28;20052;-78
2022/03/12 08:46:00;;;;;;;12.32;8.25;;;;;;;9.47;82.83;101593.72;5051725;28;20423;-76
2022/03/12 08:48:26;;;;;;;10.73;6.97;;;;;;;9.60;81.58;101593.63;5051600;28;20033;-76
2022/03/12 08:50:52;;;;;;;9.52;6.70;;;;;;;9.72;80.85;101592.69;5031942;28;20051;-77
2022/03/12 08:53:17;;;;;;;12.35;6.88;;;;;;;9.84;80.48;101589.97;5032230;28;20033;-76
2022/03/12 08:55:43;;;;;;;10.15;5.72;;;;;;;9.94;78.68;101597.69;5031162;28;20067;-77
2022/03/12 08:58:08;;;;;;;11.48;5.93;;;;;;;10.00;78.43;101600.25;5032692;28;20025;-77
2022/03/12 09:00:34;;;;;;;8.30;5.32;;;;;;;10.17;77.29;101607.91;5032210;28;20036;-77
2022/03/12 09:03:00;;;;;;;9.68;5.20;;;;;;;10.29;75.86;101597.41;5031063;28;20037;-76
2022/03/12 09:05:26;;;;;;;8.70;4.95;;;;;;;10.35;75.25;101599.94;5031803;28;20038;-76
2022/03/12 09:07:52;;;;;;;8.18;4.97;;;;;;;10.43;74.35;101595.53;5032060;28;20060;-76
2022/03/12 09:10:20;;;;;;;11.70;5.35;;;;;;;10.58;74.71;101604.91;5031551;28;20018;-76
2022/03/12 09:12:45;;;;;;;8.25;4.60;;;;;;;10.71;74.19;101605.63;5031618;28;20486;-76
2022/03/12 09:15:12;;;;;;;9.85;4.97;;;;;;;10.79;72.81;101603.81;5034438;28;20025;-74
2022/03/12 09:17:37;;;;;;;11.98;5.30;;;;;;;10.81;72.62;101607.25;5031990;28;20032;-77
2022/03/12 09:20:04;;;;;;;8.82;4.40;;;;;;;10.78;72.19;101607.28;5032162;28;20029;-76
2022/03/12 09:22:30;;;;;;;11.60;4.55;;;;;;;10.77;71.58;101602.94;5030926;28;20033;-76
2022/03/12 09:24:55;;;;;;;10.02;4.55;;;;;;;10.82;72.42;101611.56;5031557;28;20079;-75
2022/03/12 09:27:20;;;;;;;7.45;4.00;;;;;;;10.88;70.84;101602.81;5030869;28;20030;-76
2022/03/12 09:29:46;;;;;;;8.70;3.88;;;;;;;10.93;68.86;101607.09;5030555;28;20100;-76
2022/03/12 09:32:12;;;;;;;10.02;4.00;;;;;;;10.99;69.21;101611.38;5031384;28;20033;-76
2022/03/12 09:34:37;;;;;;;10.52;4.15;;;;;;;11.11;68.76;101605.13;5031240;28;20021;-76
2022/03/12 09:37:04;;;;;;;7.07;3.85;;;;;;;11.22;67.36;101598.03;5030814;28;20033;-75
2022/03/12 09:39:30;;;;;;;7.00;3.67;;;;;;;11.42;66.13;101613.41;5030995;28;20124;-76
2022/03/12 09:41:55;;;;;;;5.45;3.42;;;;;;;11.56;65.33;101595.75;5031728;28;20536;-76
2022/03/12 09:44:21;;;;;;;7.18;3.47;;;;;;;11.74;64.71;101586.78;5026244;28;20120;-76
2022/03/12 09:46:46;;;;;;;7.50;3.17;;;;;;;11.86;63.54;101601.41;5046979;28;20059;-77
2022/03/12 09:49:12;;;;;;;11.15;3.10;;;;;;;11.90;63.60;101608.31;5057389;28;20054;-77
2022/03/12 09:51:38;;;;;;;7.95;3.20;;;;;;;11.94;64.13;101599.56;5050697;28;20115;-77
2022/03/12 09:54:04;;;;;;;8.82;2.67;;;;;;;11.94;62.37;101596.94;5051630;28;20057;-76
2022/03/12 09:56:29;;;;;;;7.80;3.05;;;;;;;11.91;62.20;101607.44;5051367;28;20079;-77
2022/03/12 09:58:55;;;;;;;7.40;3.33;;;;;;;11.87;61.50;101624.03;5054622;28;20029;-77
2022/03/12 10:01:20;;;;;;;9.45;3.22;;;;;;;11.84;61.19;101611.03;5071315;28;20025;-77
2022/03/12 10:03:45;;;;;;;7.47;3.75;;;;;;;11.98;62.73;101618.66;5050216;28;20036;-76
2022/03/12 10:06:11;;;;;;;8.60;2.88;;;;;;;12.16;61.31;101610.47;5050727;28;20020;-78
2022/03/12 10:08:37;;;;;;;8.10;3.08;;;;;;;12.17;60.70;101602.63;5065603;28;20032;-77
2022/03/12 10:11:05;;;;;;;8.77;3.03;;;;;;;12.26;61.03;101612.06;5064926;28;20074;-77
2022/03/12 10:13:31;;;;;;;5.60;2.97;;;;;;;12.27;60.86;101624.22;5064093;28;20399;-77
2022/03/12 10:15:58;;;;;;;5.78;2.90;;;;;;;12.23;60.80;101626.91;5049881;28;20021;-77
2022/03/12 10:18:24;;;;;;;11.10;3.50;;;;;;;12.14;60.77;101617.50;5049593;28;20044;-77
2022/03/12 10:20:50;;;;;;;9.20;3.10;;;;;;;12.22;60.43;101623.44;5069290;28;20449;-77
2022/03/12 10:23:15;;;;;;;6.80;3.17;;;;;;;12.29;60.80;101618.97;5055951;28;20098;-76
2022/03/12 10:25:40;;;;;;;6.75;3.47;;;;;;;12.47;60.82;101620.38;5050221;28;20033;-77
2022/03/12 10:28:06;;;;;;;8.57;3.20;;;;;;;12.60;59.94;101611.41;5050928;28;20029;-82
2022/03/12 10:30:31;;;;;;;6.72;3.33;;;;;;;12.68;58.67;101609.50;5059157;28;20023;-77
2022/03/12 10:32:56;;;;;;;9.27;3.28;;;;;;;12.60;58.51;101608.78;5068819;28;20597;-77
2022/03/12 10:35:22;;;;;;;8.63;2.80;;;;;;;12.61;59.57;101618.34;5071197;28;20039;-77
2022/03/12 10:37:49;;;;;;;10.70;2.90;;;;;;;12.58;58.75;101611.44;5071091;28;20033;-77
2022/03/12 10:40:18;;;;;;;8.23;2.70;;;;;;;12.55;58.61;101613.25;5070205;28;20074;-77
2022/03/12 10:42:47;;;;;;;8.20;2.45;;;;;;;12.65;58.74;101622.63;5070987;28;20032;-77
2022/03/12 10:45:15;;;;;;;5.38;2.60;;;;;;;12.69;57.47;101612.97;5070931;28;20036;-77
2022/03/12 10:47:42;;;;;;;9.68;2.85;;;;;;;12.77;57.70;101614.53;5071237;28;20028;-77
2022/03/12 10:50:11;;;;;;;5.38;2.70;;;;;;;12.87;57.39;101616.06;5074751;28;20094;-77
2022/03/12 10:52:43;;;;;;;5.35;2.47;;;;;;;13.00;57.48;101605.34;5074683;28;20111;-77
2022/03/12 10:55:19;;;;;;;5.47;2.38;;;;;;;13.22;57.59;101604.00;5074181;28;20098;-77
2022/03/12 10:57:56;;;;;;;6.40;3.00;;;;;;;13.37;56.80;101604.56;5074427;28;20395;-77
2022/03/12 11:00:23;;;;;;;8.30;2.63;;;;;;;13.59;55.87;101608.41;5074405;28;20108;-77
2022/03/12 11:02:57;;;;;;;6.93;2.88;;;;;;;13.60;55.17;101618.00;5073764;28;20066;-77
2022/03/12 11:05:35;;;;;;;8.18;2.83;;;;;;;13.73;55.10;101602.84;5074434;28;20032;-77
2022/03/12 11:08:09;;;;;;;4.60;2.00;;;;;;;13.77;53.26;101607.97;5073375;28;20032;-77
2022/03/12 11:10:37;;;;;;;7.35;2.67;;;;;;;13.88;53.43;101615.56;5074329;28;20035;-77
2022/03/12 11:13:03;;;;;;;5.78;2.30;;;;;;;14.06;53.66;101614.25;5074615;28;20048;-77
2022/03/12 11:15:32;;;;;;;6.80;2.20;;;;;;;14.09;51.97;101626.41;5073603;28;20074;-77
2022/03/12 11:17:57;;;;;;;5.10;2.20;;;;;;;14.00;51.88;101619.66;5074270;28;20032;-77